createdAt,value
2019-02-20T00:00:12.972Z,87.50
2019-02-20T00:02:41.460Z,87.37
2019-02-20T00:05:09.892Z,87.41
2019-02-20T00:07:38.357Z,87.34
2019-02-20T00:10:07.327Z,87.30
2019-02-20T00:12:36.028Z,87.43
2019-02-20T00:15:05.801Z,86.92
2019-02-20T00:17:34.234Z,86.41
2019-02-20T00:20:02.723Z,86.24
2019-02-20T00:22:39.798Z,86.28
2019-02-20T00:25:01.355Z,86.11
2019-02-20T00:27:29.802Z,85.71
2019-02-20T00:29:58.195Z,85.64
2019-02-20T00:32:26.619Z,85.33
2019-02-20T00:34:55.297Z,85.26
2019-02-20T00:37:23.713Z,84.49
2019-02-20T00:39:52.188Z,84.11
2019-02-20T00:42:20.714Z,83.99
2019-02-20T00:44:56.499Z,83.58
2019-02-20T00:47:38.352Z,83.84
2019-02-20T00:50:06.889Z,84.38
2019-02-20T00:52:36.886Z,84.68
2019-02-20T00:55:07.011Z,84.66
2019-02-20T00:57:35.460Z,84.80
2019-02-20T01:00:06.060Z,85.04
2019-02-20T01:02:34.725Z,85.12
2019-02-20T01:05:03.162Z,85.36
2019-02-20T01:07:31.903Z,85.53
2019-02-20T01:10:00.593Z,85.78
2019-02-20T01:12:28.979Z,85.78
2019-02-20T01:14:57.429Z,85.70
2019-02-20T01:17:26.171Z,85.65
2019-02-20T01:19:54.611Z,85.32
2019-02-20T01:22:23.100Z,85.15
2019-02-20T01:24:51.553Z,85.43
2019-02-20T01:27:19.996Z,84.84
2019-02-20T01:29:48.453Z,84.47
2019-02-20T01:32:16.917Z,84.08
2019-02-20T01:34:45.331Z,83.92
2019-02-20T01:37:13.756Z,83.98
2019-02-20T01:39:42.170Z,84.36
2019-02-20T01:42:10.613Z,83.92
2019-02-20T01:44:39.168Z,84.00
2019-02-20T01:47:07.689Z,83.62
2019-02-20T01:49:36.443Z,83.35
2019-02-20T01:52:04.915Z,83.72
2019-02-20T01:54:33.593Z,83.46
2019-02-20T01:57:01.918Z,83.50
2019-02-20T01:59:30.623Z,83.42
2019-02-20T02:01:59.171Z,82.89
2019-02-20T02:04:27.542Z,83.30
2019-02-20T02:06:56.001Z,82.33
2019-02-20T02:09:24.447Z,82.55
2019-02-20T02:11:52.994Z,82.35
2019-02-20T02:14:21.428Z,82.33
2019-02-20T02:16:49.908Z,82.16
2019-02-20T02:19:18.283Z,81.73
2019-02-20T02:21:46.687Z,81.82
2019-02-20T02:24:15.135Z,81.15
2019-02-20T02:26:43.512Z,81.41
2019-02-20T02:29:11.994Z,80.93
2019-02-20T02:31:40.434Z,81.48
2019-02-20T02:34:08.890Z,80.73
2019-02-20T02:36:37.298Z,80.48
2019-02-20T02:39:06.280Z,80.44
2019-02-20T02:41:34.725Z,80.58
2019-02-20T02:44:03.224Z,80.57
2019-02-20T02:46:31.720Z,80.71
2019-02-20T02:49:00.107Z,80.69
2019-02-20T02:51:28.520Z,80.37
2019-02-20T02:53:56.884Z,80.52
2019-02-20T02:56:25.628Z,80.23
2019-02-20T02:58:54.198Z,80.42
2019-02-20T03:01:22.843Z,80.75
2019-02-20T03:03:51.233Z,80.98
2019-02-20T03:06:19.693Z,81.17
2019-02-20T03:08:48.230Z,81.10
2019-02-20T03:11:16.670Z,81.28
2019-02-20T03:13:46.918Z,81.33
2019-02-20T03:16:15.338Z,81.18
2019-02-20T03:18:43.831Z,81.23
2019-02-20T03:21:12.196Z,81.64
2019-02-20T03:23:40.760Z,81.54
2019-02-20T03:26:09.142Z,81.52
2019-02-20T03:28:37.549Z,81.57
2019-02-20T03:31:05.948Z,81.50
2019-02-20T03:33:34.742Z,81.68
2019-02-20T03:36:03.177Z,81.78
2019-02-20T03:38:31.904Z,81.61
2019-02-20T03:41:00.334Z,81.79
2019-02-20T03:43:28.809Z,81.85
2019-02-20T03:45:57.224Z,82.08
2019-02-20T03:48:25.890Z,82.29
2019-02-20T03:50:54.340Z,82.17
2019-02-20T03:53:22.551Z,82.01
2019-02-20T03:55:51.200Z,81.97
2019-02-20T03:58:19.919Z,82.10
2019-02-20T04:00:48.399Z,82.25
2019-02-20T04:03:16.803Z,82.38
2019-02-20T04:05:45.471Z,82.45
2019-02-20T04:08:13.860Z,82.37
2019-02-20T04:10:43.906Z,81.98
2019-02-20T04:13:12.404Z,82.42
2019-02-20T04:15:41.007Z,82.51
2019-02-20T04:18:10.869Z,82.47
2019-02-20T04:20:39.412Z,82.63
2019-02-20T04:23:08.070Z,82.47
2019-02-20T04:25:36.676Z,82.46
2019-02-20T04:28:05.439Z,82.46
2019-02-20T04:30:34.144Z,82.61
2019-02-20T04:33:02.630Z,82.79
2019-02-20T04:35:31.075Z,82.65
2019-02-20T04:37:59.526Z,82.43
2019-02-20T04:40:27.960Z,82.11
2019-02-20T04:42:58.478Z,82.19
2019-02-20T04:45:26.590Z,82.35
2019-02-20T04:47:55.031Z,82.19
2019-02-20T04:50:23.467Z,81.87
2019-02-20T04:52:52.194Z,81.92
2019-02-20T04:55:20.595Z,81.61
2019-02-20T04:57:52.155Z,81.38
2019-02-20T05:00:20.522Z,81.32
2019-02-20T05:02:49.214Z,81.44
2019-02-20T05:05:17.726Z,81.29
2019-02-20T05:07:46.192Z,81.22
2019-02-20T05:10:14.950Z,81.11
2019-02-20T05:12:43.367Z,81.04
2019-02-20T05:15:11.912Z,80.90
2019-02-20T05:17:40.431Z,81.18
2019-02-20T05:20:09.697Z,80.36
2019-02-20T05:22:38.108Z,80.44
2019-02-20T05:25:06.519Z,80.42
2019-02-20T05:27:34.929Z,80.34
2019-02-20T05:30:03.680Z,80.29
2019-02-20T05:32:32.401Z,80.09
2019-02-20T05:35:01.056Z,80.20
2019-02-20T05:37:29.689Z,80.05
2019-02-20T05:39:58.122Z,79.75
2019-02-20T05:42:26.880Z,80.04
2019-02-20T05:44:55.415Z,80.25
2019-02-20T05:47:23.755Z,79.87
2019-02-20T05:49:52.231Z,80.14
2019-02-20T05:52:20.589Z,79.87
2019-02-20T05:54:49.278Z,79.33
2019-02-20T05:57:17.637Z,79.54
2019-02-20T05:59:46.101Z,79.52
2019-02-20T06:02:14.631Z,79.70
2019-02-20T06:04:43.167Z,79.61
2019-02-20T06:07:11.905Z,79.50
2019-02-20T06:09:40.782Z,79.20
2019-02-20T06:12:09.467Z,79.20
2019-02-20T06:14:37.958Z,79.24
2019-02-20T06:17:06.413Z,79.21
2019-02-20T06:19:34.787Z,79.29
2019-02-20T06:22:03.307Z,79.26
2019-02-20T06:24:31.811Z,79.13
2019-02-20T06:27:00.224Z,79.31
2019-02-20T06:29:28.648Z,79.01
2019-02-20T06:31:57.125Z,79.15
2019-02-20T06:34:25.794Z,78.60
2019-02-20T06:36:54.168Z,78.46
2019-02-20T06:39:22.610Z,78.49
2019-02-20T06:41:51.017Z,78.33
2019-02-20T06:44:19.373Z,78.44
2019-02-20T06:46:47.755Z,78.48
2019-02-20T06:49:16.298Z,78.17
2019-02-20T06:51:44.654Z,78.19
2019-02-20T06:54:13.087Z,78.03
2019-02-20T06:56:41.980Z,78.07
2019-02-20T06:59:10.442Z,78.35
2019-02-20T07:01:38.961Z,77.81
2019-02-20T07:04:07.348Z,78.07
2019-02-20T07:06:47.953Z,77.38
2019-02-20T07:09:38.619Z,77.65
2019-02-20T07:12:18.759Z,77.24
2019-02-20T07:14:50.348Z,77.46
2019-02-20T07:17:44.163Z,77.48
2019-02-20T07:20:33.415Z,77.12
2019-02-20T07:23:23.940Z,76.51
2019-02-20T07:25:58.181Z,76.72
2019-02-20T07:28:44.756Z,76.52
2019-02-20T07:31:13.237Z,76.64
2019-02-20T07:33:41.609Z,76.58
2019-02-20T07:36:10.054Z,76.33
2019-02-20T07:38:38.512Z,76.64
2019-02-20T07:41:07.298Z,76.20
2019-02-20T07:43:35.967Z,76.45
2019-02-20T07:46:04.391Z,76.38
2019-02-20T07:48:32.796Z,76.60
2019-02-20T07:51:01.372Z,76.66
2019-02-20T07:53:29.763Z,76.93
2019-02-20T07:55:58.501Z,76.91
2019-02-20T07:58:26.884Z,76.72
2019-02-20T08:00:55.250Z,76.62
2019-02-20T08:03:23.735Z,76.49
2019-02-20T08:05:52.209Z,76.46
2019-02-20T08:08:20.906Z,76.49
2019-02-20T08:10:49.414Z,76.37
2019-02-20T08:13:18.145Z,76.32
2019-02-20T08:15:46.579Z,76.12
2019-02-20T08:18:14.998Z,76.58
2019-02-20T08:20:43.453Z,77.11
2019-02-20T08:23:11.861Z,77.10
2019-02-20T08:25:40.249Z,76.98
2019-02-20T08:28:08.713Z,76.99
2019-02-20T08:30:37.117Z,76.94
2019-02-20T08:33:05.736Z,76.40
2019-02-20T08:35:34.262Z,76.39
2019-02-20T08:38:02.599Z,76.16
2019-02-20T08:40:31.234Z,75.63
2019-02-20T08:42:59.873Z,75.07
2019-02-20T08:45:28.610Z,74.48
2019-02-20T08:47:57.001Z,74.18
2019-02-20T08:50:25.476Z,73.70
2019-02-20T08:52:54.001Z,73.67
2019-02-20T08:55:31.566Z,73.14
2019-02-20T08:57:52.994Z,73.18
2019-02-20T09:00:21.470Z,72.78
2019-02-20T09:02:50.275Z,73.73
2019-02-20T09:05:18.716Z,73.96
2019-02-20T09:07:47.191Z,73.73
2019-02-20T09:10:17.378Z,73.82
2019-02-20T09:12:46.585Z,73.62
2019-02-20T09:15:15.047Z,74.24
2019-02-20T09:17:43.462Z,73.50
2019-02-20T09:20:12.624Z,72.54
2019-02-20T09:22:41.032Z,72.45
2019-02-20T09:25:19.180Z,71.91
2019-02-20T09:27:41.167Z,72.30
2019-02-20T09:30:12.591Z,71.30
2019-02-20T09:32:41.021Z,71.58
2019-02-20T09:35:09.583Z,70.92
2019-02-20T09:37:38.005Z,71.17
2019-02-20T09:40:12.346Z,70.87
2019-02-20T09:42:41.066Z,71.45
2019-02-20T09:45:09.806Z,70.83
2019-02-20T09:47:38.263Z,71.54
2019-02-20T09:50:08.302Z,70.93
2019-02-20T09:52:37.026Z,70.47
2019-02-20T09:55:08.372Z,69.47
2019-02-20T09:57:37.184Z,70.58
2019-02-20T10:00:11.023Z,69.66
2019-02-20T10:02:39.401Z,69.93
2019-02-20T10:05:09.757Z,69.59
2019-02-20T10:07:38.310Z,70.11
2019-02-20T10:10:10.842Z,69.85
2019-02-20T10:12:39.326Z,70.01
2019-02-20T10:15:10.849Z,70.00
2019-02-20T10:17:39.444Z,70.33
2019-02-20T10:20:09.746Z,70.23
2019-02-20T10:22:38.219Z,70.72
2019-02-20T10:25:13.763Z,70.01
2019-02-20T10:27:43.230Z,70.70
2019-02-20T10:30:17.391Z,69.82
2019-02-20T10:32:45.993Z,69.16
2019-02-20T10:35:14.508Z,68.54
2019-02-20T10:37:42.879Z,68.55
2019-02-20T10:40:11.819Z,69.01
2019-02-20T10:42:40.353Z,69.15
2019-02-20T10:45:12.923Z,68.22
2019-02-20T10:47:41.376Z,67.83
2019-02-20T10:50:11.728Z,67.56
2019-02-20T10:52:40.088Z,67.72
2019-02-20T10:55:09.547Z,68.51
2019-02-20T10:57:38.229Z,68.02
2019-02-20T11:00:11.427Z,68.42
2019-02-20T11:02:39.953Z,67.50
2019-02-20T11:05:08.480Z,65.10
2019-02-20T11:07:37.044Z,64.55
2019-02-20T11:10:07.493Z,63.25
2019-02-20T11:12:35.982Z,64.46
2019-02-20T11:15:05.438Z,63.39
2019-02-20T11:17:33.884Z,64.81
2019-02-20T11:20:02.353Z,65.19
2019-02-20T11:22:32.112Z,64.71
2019-02-20T11:25:00.880Z,65.27
2019-02-20T11:27:29.635Z,63.86
2019-02-20T11:29:58.377Z,64.19
2019-02-20T11:32:26.919Z,64.47
2019-02-20T11:34:55.332Z,65.15
2019-02-20T11:37:24.011Z,64.07
2019-02-20T11:39:53.995Z,62.88
2019-02-20T11:42:23.009Z,63.23
2019-02-20T11:44:51.712Z,64.21
2019-02-20T11:47:20.281Z,64.03
2019-02-20T11:49:49.094Z,62.89
2019-02-20T11:52:18.518Z,63.21
2019-02-20T11:54:47.236Z,63.00
2019-02-20T11:57:15.700Z,63.77
2019-02-20T11:59:44.400Z,63.84
2019-02-20T12:02:12.862Z,64.09
2019-02-20T12:04:41.337Z,63.76
2019-02-20T12:07:09.729Z,64.28
2019-02-20T12:09:38.179Z,64.15
2019-02-20T12:12:06.610Z,63.96
2019-02-20T12:14:35.088Z,62.63
2019-02-20T12:17:03.975Z,61.41
2019-02-20T12:19:32.488Z,61.12
2019-02-20T12:22:00.950Z,60.76
2019-02-20T12:24:29.420Z,60.23
2019-02-20T12:26:57.874Z,59.83
2019-02-20T12:29:26.629Z,59.64
2019-02-20T12:31:55.071Z,59.64
2019-02-20T12:34:23.555Z,59.70
2019-02-20T12:36:51.936Z,61.19
2019-02-20T12:39:20.377Z,62.42
2019-02-20T12:41:48.800Z,62.13
2019-02-20T12:44:17.534Z,61.77
2019-02-20T12:46:47.737Z,60.77
2019-02-20T12:49:17.909Z,60.21
2019-02-20T12:51:46.324Z,61.48
2019-02-20T12:54:14.698Z,62.25
2019-02-20T12:56:44.172Z,62.61
2019-02-20T12:59:12.813Z,63.45
2019-02-20T13:01:41.361Z,64.13
2019-02-20T13:04:09.986Z,64.73
2019-02-20T13:06:38.723Z,64.81
2019-02-20T13:09:09.103Z,64.94
2019-02-20T13:11:37.671Z,65.28
2019-02-20T13:14:06.193Z,65.58
2019-02-20T13:16:34.669Z,65.33
2019-02-20T13:19:03.148Z,65.48
2019-02-20T13:21:31.611Z,65.18
2019-02-20T13:24:00.025Z,64.61
2019-02-20T13:26:28.463Z,64.03
2019-02-20T13:28:57.022Z,63.93
2019-02-20T13:31:25.495Z,63.54
2019-02-20T13:33:53.895Z,63.84
2019-02-20T13:36:22.413Z,63.17
2019-02-20T13:38:50.879Z,62.27
2019-02-20T13:41:19.676Z,62.21
2019-02-20T13:43:51.098Z,60.73
2019-02-20T13:46:19.660Z,61.03
2019-02-20T13:48:48.267Z,62.08
2019-02-20T13:51:17.743Z,63.40
2019-02-20T13:53:46.744Z,63.54
2019-02-20T13:56:15.271Z,63.70
2019-02-20T13:58:43.747Z,63.93
2019-02-20T14:01:12.543Z,63.79
2019-02-20T14:03:41.787Z,63.34
2019-02-20T14:06:10.556Z,63.65
2019-02-20T14:08:39.407Z,63.20
2019-02-20T14:11:08.646Z,62.65
2019-02-20T14:13:37.099Z,61.89
2019-02-20T14:16:05.557Z,61.54
2019-02-20T14:18:34.056Z,62.69
2019-02-20T14:21:02.701Z,63.48
2019-02-20T14:23:31.060Z,64.24
2019-02-20T14:26:00.784Z,64.27
2019-02-20T14:28:29.316Z,64.18
2019-02-20T14:30:57.789Z,63.42
2019-02-20T14:33:26.158Z,63.22
2019-02-20T14:35:54.633Z,62.86
2019-02-20T14:38:23.093Z,62.52
2019-02-20T14:40:51.556Z,62.65
2019-02-20T14:43:20.015Z,61.63
2019-02-20T14:45:48.411Z,60.34
2019-02-20T14:48:16.923Z,59.81
2019-02-20T14:50:45.317Z,60.37
2019-02-20T14:53:13.830Z,60.21
2019-02-20T14:55:42.230Z,60.52
2019-02-20T14:58:10.788Z,60.59
2019-02-20T15:00:39.594Z,61.34
2019-02-20T15:03:08.074Z,61.34
2019-02-20T15:05:36.511Z,62.43
2019-02-20T15:08:05.603Z,63.10
2019-02-20T15:10:34.055Z,63.29
2019-02-20T15:13:02.586Z,63.08
2019-02-20T15:15:31.046Z,63.43
2019-02-20T15:17:59.845Z,63.75
2019-02-20T15:20:28.370Z,63.87
2019-02-20T15:22:58.386Z,64.23
2019-02-20T15:25:26.983Z,64.60
2019-02-20T15:27:55.506Z,64.68
2019-02-20T15:30:23.974Z,64.98
2019-02-20T15:32:52.472Z,65.22
2019-02-20T15:35:21.023Z,65.56
2019-02-20T15:37:49.760Z,65.71
2019-02-20T15:40:18.316Z,65.45
2019-02-20T15:42:46.777Z,65.40
2019-02-20T15:45:15.307Z,65.66
2019-02-20T15:47:43.690Z,65.65
2019-02-20T15:50:15.643Z,65.97
2019-02-20T15:52:44.012Z,66.12
2019-02-20T15:55:12.486Z,66.22
2019-02-20T15:57:41.111Z,66.31
2019-02-20T16:00:17.087Z,66.49
2019-02-20T16:02:45.547Z,66.49
2019-02-20T16:05:14.283Z,66.52
2019-02-20T16:07:42.718Z,66.34
2019-02-20T16:10:11.774Z,66.32
2019-02-20T16:12:40.211Z,66.50
2019-02-20T16:15:10.336Z,66.33
2019-02-20T16:17:49.151Z,66.58
2019-02-20T16:20:15.261Z,66.72
2019-02-20T16:22:43.658Z,66.78
2019-02-20T16:25:16.090Z,66.85
2019-02-20T16:27:47.062Z,67.08
2019-02-20T16:30:15.278Z,67.32
2019-02-20T16:32:43.806Z,67.64
2019-02-20T16:35:12.700Z,67.53
2019-02-20T16:37:41.237Z,67.86
2019-02-20T16:40:12.513Z,68.02
2019-02-20T16:42:40.936Z,68.06
2019-02-20T16:45:12.489Z,68.11
2019-02-20T16:47:40.940Z,67.89
2019-02-20T16:50:09.644Z,67.95
2019-02-20T16:52:38.161Z,68.00
2019-02-20T16:55:06.721Z,67.97
2019-02-20T16:57:35.267Z,67.91
2019-02-20T17:00:03.981Z,67.84
2019-02-20T17:02:32.641Z,67.93
2019-02-20T17:05:01.057Z,68.09
2019-02-20T17:07:30.106Z,68.23
2019-02-20T17:09:58.816Z,68.24
2019-02-20T17:12:27.179Z,68.24
2019-02-20T17:14:55.704Z,68.31
2019-02-20T17:17:24.178Z,68.29
2019-02-20T17:19:52.532Z,68.24
2019-02-20T17:22:20.941Z,68.20
2019-02-20T17:24:49.450Z,68.27
2019-02-20T17:27:18.058Z,68.30
2019-02-20T17:29:46.553Z,68.26
2019-02-20T17:32:14.929Z,68.24
2019-02-20T17:34:43.381Z,68.26
2019-02-20T17:37:11.966Z,68.25
2019-02-20T17:39:41.094Z,68.24
2019-02-20T17:42:09.720Z,67.79
2019-02-20T17:44:38.247Z,67.95
2019-02-20T17:47:06.711Z,68.00
2019-02-20T17:49:35.266Z,68.10
2019-02-20T17:52:03.885Z,67.98
2019-02-20T17:54:32.304Z,67.78
2019-02-20T17:57:00.765Z,67.94
2019-02-20T17:59:29.143Z,68.19
2019-02-20T18:01:58.501Z,68.24
2019-02-20T18:04:27.241Z,68.41
2019-02-20T18:06:56.004Z,68.42
2019-02-20T18:09:24.707Z,68.39
2019-02-20T18:11:53.143Z,68.47
2019-02-20T18:14:21.608Z,68.44
2019-02-20T18:16:50.260Z,68.57
2019-02-20T18:19:18.568Z,68.59
2019-02-20T18:21:46.972Z,68.71
2019-02-20T18:24:15.724Z,68.63
2019-02-20T18:26:44.178Z,68.67
2019-02-20T18:29:12.558Z,68.66
2019-02-20T18:31:41.078Z,68.72
2019-02-20T18:34:09.557Z,69.00
2019-02-20T18:36:38.228Z,68.80
2019-02-20T18:39:07.051Z,68.47
2019-02-20T18:41:35.486Z,68.45
2019-02-20T18:44:04.234Z,68.46
2019-02-20T18:46:33.006Z,68.33
2019-02-20T18:49:01.568Z,68.43
2019-02-20T18:51:29.997Z,68.42
2019-02-20T18:53:58.511Z,68.63
2019-02-20T18:56:27.034Z,68.51
2019-02-20T18:58:55.440Z,68.35
2019-02-20T19:01:23.954Z,68.19
2019-02-20T19:03:52.542Z,68.10
2019-02-20T19:06:21.194Z,68.27
2019-02-20T19:08:51.613Z,68.13
2019-02-20T19:11:35.348Z,68.32
2019-02-20T19:14:23.061Z,68.30
2019-02-20T19:17:19.722Z,68.06
2019-02-20T19:20:15.072Z,68.26
2019-02-20T19:23:05.761Z,68.27
2019-02-20T19:25:37.337Z,68.41
2019-02-20T19:28:23.962Z,68.43
2019-02-20T19:31:21.029Z,68.33
2019-02-20T19:34:21.091Z,68.62
2019-02-20T19:37:14.931Z,68.49
2019-02-20T19:40:15.113Z,68.39
2019-02-20T19:43:01.638Z,68.09
2019-02-20T19:45:33.309Z,68.02
2019-02-20T19:48:31.840Z,68.07
2019-02-20T19:51:12.306Z,67.88
2019-02-20T19:53:43.927Z,68.03
2019-02-20T19:56:18.345Z,68.00
2019-02-20T19:59:21.491Z,67.89
2019-02-20T20:02:08.443Z,67.82
2019-02-20T20:04:51.634Z,67.44
2019-02-20T20:07:41.025Z,67.84
2019-02-20T20:10:27.679Z,67.56
2019-02-20T20:13:01.947Z,67.60
2019-02-20T20:15:36.217Z,67.64
2019-02-20T20:18:23.636Z,67.62
2019-02-20T20:21:25.121Z,67.91
2019-02-20T20:24:22.678Z,67.54
2019-02-20T20:27:20.723Z,67.46
2019-02-20T20:30:20.784Z,67.53
2019-02-20T20:33:11.530Z,67.39
2019-02-20T20:35:59.153Z,67.49
2019-02-20T20:38:36.344Z,67.41
2019-02-20T20:41:10.838Z,67.77
2019-02-20T20:43:45.032Z,67.08
2019-02-20T20:46:28.717Z,67.08
2019-02-20T20:49:02.800Z,67.30
2019-02-20T20:51:53.564Z,66.94
2019-02-20T20:54:39.898Z,66.83
2019-02-20T20:57:26.349Z,66.99
2019-02-20T21:00:00.798Z,66.72
2019-02-20T21:02:32.337Z,66.78
2019-02-20T21:05:20.176Z,67.15
2019-02-20T21:08:03.019Z,66.91
2019-02-20T21:11:09.015Z,66.84
2019-02-20T21:13:56.959Z,67.01
2019-02-20T21:16:43.362Z,67.05
2019-02-20T21:19:29.662Z,66.92
2019-02-20T21:22:22.339Z,66.83
2019-02-20T21:25:15.990Z,67.11
2019-02-20T21:27:53.236Z,67.06
2019-02-20T21:30:41.114Z,67.17
2019-02-20T21:33:33.307Z,67.18
2019-02-20T21:36:05.311Z,67.44
2019-02-20T21:38:48.743Z,67.21
2019-02-20T21:41:23.073Z,67.21
2019-02-20T21:44:09.330Z,67.06
2019-02-20T21:46:52.686Z,67.08
2019-02-20T21:49:29.929Z,67.40
2019-02-20T21:52:19.384Z,67.54
2019-02-20T21:55:02.581Z,67.63
2019-02-20T21:57:49.274Z,67.43
2019-02-20T22:00:27.838Z,67.37
2019-02-20T22:03:05.411Z,67.42
2019-02-20T22:05:59.742Z,67.42
2019-02-20T22:08:31.275Z,67.54
2019-02-20T22:11:28.270Z,67.50
2019-02-20T22:14:11.668Z,67.58
2019-02-20T22:16:48.762Z,67.83
2019-02-20T22:19:20.323Z,67.93
2019-02-20T22:22:11.026Z,67.87
2019-02-20T22:24:54.535Z,68.04
2019-02-20T22:27:48.532Z,68.10
2019-02-20T22:30:31.868Z,67.95
2019-02-20T22:33:03.567Z,67.95
2019-02-20T22:35:57.663Z,67.94
2019-02-20T22:38:29.259Z,67.89
2019-02-20T22:41:03.604Z,67.89
2019-02-20T22:43:43.815Z,67.84
2019-02-20T22:46:15.352Z,67.73
2019-02-20T22:48:58.855Z,67.98
2019-02-20T22:51:36.282Z,68.13
2019-02-20T22:54:11.014Z,68.22
2019-02-20T22:57:05.893Z,68.41
2019-02-20T23:00:08.515Z,68.32
2019-02-20T23:02:48.972Z,68.35
2019-02-20T23:05:36.656Z,68.17
2019-02-20T23:08:23.244Z,68.34
2019-02-20T23:11:15.660Z,68.58
2019-02-20T23:13:59.099Z,68.63
2019-02-20T23:16:27.640Z,68.59
2019-02-20T23:18:56.383Z,68.64
2019-02-20T23:21:24.843Z,68.59
2019-02-20T23:23:53.226Z,68.51
2019-02-20T23:26:21.701Z,68.52
2019-02-20T23:28:50.120Z,68.41
2019-02-20T23:31:18.508Z,68.45
2019-02-20T23:33:47.014Z,68.73
2019-02-20T23:36:15.492Z,68.91
2019-02-20T23:38:43.871Z,68.97
2019-02-20T23:41:12.265Z,68.85
2019-02-20T23:43:40.658Z,68.95
2019-02-20T23:46:09.111Z,69.05
2019-02-20T23:48:37.509Z,69.11
2019-02-20T23:51:05.946Z,69.06
2019-02-20T23:53:34.599Z,68.84
2019-02-20T23:56:02.928Z,68.62
2019-02-20T23:58:31.375Z,68.86
